sensor_id;sensor_type;location;lat;lon;timestamp;P1;durP1;ratioP1;P2;durP2;ratioP2
23712;SDS011;12035;49.978;8.298;2022-08-19T00:03:39;13.32;;;9.18;;
23712;SDS011;12035;49.978;8.298;2022-08-19T00:08:38;10.73;;;8.65;;
23712;SDS011;12035;49.978;8.298;2022-08-19T00:13:35;9.75;;;8.18;;
23712;SDS011;12035;49.978;8.298;2022-08-19T00:18:33;10.40;;;7.85;;
23712;SDS011;12035;49.978;8.298;2022-08-19T00:23:30;11.50;;;7.72;;
23712;SDS011;12035;49.978;8.298;2022-08-19T00:28:31;11.80;;;8.75;;
23712;SDS011;12035;49.978;8.298;2022-08-19T00:33:30;11.40;;;7.95;;
23712;SDS011;12035;49.978;8.298;2022-08-19T00:38:28;12.52;;;9.10;;
23712;SDS011;12035;49.978;8.298;2022-08-19T00:43:26;11.55;;;8.90;;
23712;SDS011;12035;49.978;8.298;2022-08-19T00:48:25;13.18;;;7.88;;
23712;SDS011;12035;49.978;8.298;2022-08-19T00:53:23;11.07;;;8.95;;
23712;SDS011;12035;49.978;8.298;2022-08-19T00:58:24;11.93;;;8.48;;
23712;SDS011;12035;49.978;8.298;2022-08-19T01:03:26;10.52;;;8.50;;
23712;SDS011;12035;49.978;8.298;2022-08-19T01:08:24;13.93;;;9.73;;
23712;SDS011;12035;49.978;8.298;2022-08-19T01:13:22;13.38;;;9.07;;
23712;SDS011;12035;49.978;8.298;2022-08-19T01:18:22;13.15;;;9.75;;
23712;SDS011;12035;49.978;8.298;2022-08-19T01:23:22;13.02;;;9.50;;
23712;SDS011;12035;49.978;8.298;2022-08-19T01:28:37;11.48;;;8.07;;
23712;SDS011;12035;49.978;8.298;2022-08-19T01:33:35;12.25;;;9.27;;
23712;SDS011;12035;49.978;8.298;2022-08-19T01:38:35;10.55;;;8.48;;
23712;SDS011;12035;49.978;8.298;2022-08-19T01:43:34;10.63;;;8.50;;
23712;SDS011;12035;49.978;8.298;2022-08-19T01:48:35;10.13;;;7.97;;
23712;SDS011;12035;49.978;8.298;2022-08-19T01:53:35;10.68;;;7.78;;
23712;SDS011;12035;49.978;8.298;2022-08-19T01:58:36;11.32;;;8.40;;
23712;SDS011;12035;49.978;8.298;2022-08-19T02:03:37;10.63;;;8.23;;
23712;SDS011;12035;49.978;8.298;2022-08-19T02:08:37;11.32;;;9.13;;
23712;SDS011;12035;49.978;8.298;2022-08-19T02:13:35;14.30;;;8.68;;
23712;SDS011;12035;49.978;8.298;2022-08-19T02:18:32;10.95;;;9.18;;
23712;SDS011;12035;49.978;8.298;2022-08-19T02:23:31;9.23;;;7.35;;
23712;SDS011;12035;49.978;8.298;2022-08-19T02:28:29;13.82;;;9.27;;
23712;SDS011;12035;49.978;8.298;2022-08-19T02:33:27;10.65;;;8.63;;
23712;SDS011;12035;49.978;8.298;2022-08-19T02:38:24;13.70;;;9.75;;
23712;SDS011;12035;49.978;8.298;2022-08-19T02:43:21;10.55;;;8.35;;
23712;SDS011;12035;49.978;8.298;2022-08-19T02:48:22;12.82;;;9.07;;
23712;SDS011;12035;49.978;8.298;2022-08-19T02:53:22;11.13;;;8.75;;
23712;SDS011;12035;49.978;8.298;2022-08-19T02:58:23;11.13;;;9.00;;
23712;SDS011;12035;49.978;8.298;2022-08-19T03:03:23;11.88;;;8.57;;
23712;SDS011;12035;49.978;8.298;2022-08-19T03:08:20;10.38;;;8.63;;
23712;SDS011;12035;49.978;8.298;2022-08-19T03:13:17;10.27;;;7.97;;
23712;SDS011;12035;49.978;8.298;2022-08-19T03:18:14;10.90;;;8.38;;
23712;SDS011;12035;49.978;8.298;2022-08-19T03:23:14;10.25;;;8.25;;
23712;SDS011;12035;49.978;8.298;2022-08-19T03:28:14;10.82;;;7.85;;
23712;SDS011;12035;49.978;8.298;2022-08-19T03:33:11;10.15;;;7.38;;
23712;SDS011;12035;49.978;8.298;2022-08-19T03:38:08;11.57;;;8.30;;
23712;SDS011;12035;49.978;8.298;2022-08-19T03:43:07;12.00;;;8.20;;
23712;SDS011;12035;49.978;8.298;2022-08-19T03:48:04;9.07;;;7.22;;
23712;SDS011;12035;49.978;8.298;2022-08-19T03:53:01;9.95;;;7.60;;
23712;SDS011;12035;49.978;8.298;2022-08-19T03:57:58;9.10;;;7.78;;
23712;SDS011;12035;49.978;8.298;2022-08-19T04:02:57;12.30;;;8.15;;
23712;SDS011;12035;49.978;8.298;2022-08-19T04:07:55;9.07;;;7.80;;
23712;SDS011;12035;49.978;8.298;2022-08-19T04:12:53;9.13;;;7.57;;
23712;SDS011;12035;49.978;8.298;2022-08-19T04:17:50;8.93;;;7.20;;
23712;SDS011;12035;49.978;8.298;2022-08-19T04:22:49;10.57;;;8.30;;
23712;SDS011;12035;49.978;8.298;2022-08-19T04:27:46;10.45;;;7.78;;
23712;SDS011;12035;49.978;8.298;2022-08-19T04:32:44;10.63;;;7.68;;
23712;SDS011;12035;49.978;8.298;2022-08-19T04:37:41;10.18;;;8.18;;
23712;SDS011;12035;49.978;8.298;2022-08-19T04:42:39;9.95;;;8.05;;
23712;SDS011;12035;49.978;8.298;2022-08-19T04:47:36;10.32;;;7.40;;
23712;SDS011;12035;49.978;8.298;2022-08-19T04:52:34;11.25;;;6.82;;
23712;SDS011;12035;49.978;8.298;2022-08-19T04:57:31;8.75;;;6.65;;
23712;SDS011;12035;49.978;8.298;2022-08-19T05:02:29;8.23;;;6.90;;
23712;SDS011;12035;49.978;8.298;2022-08-19T05:07:27;8.43;;;6.65;;
23712;SDS011;12035;49.978;8.298;2022-08-19T05:12:24;9.32;;;7.28;;
23712;SDS011;12035;49.978;8.298;2022-08-19T05:17:22;8.60;;;7.25;;
23712;SDS011;12035;49.978;8.298;2022-08-19T05:22:20;10.23;;;6.53;;
23712;SDS011;12035;49.978;8.298;2022-08-19T05:27:31;9.32;;;6.32;;
23712;SDS011;12035;49.978;8.298;2022-08-19T05:32:28;11.77;;;6.50;;
23712;SDS011;12035;49.978;8.298;2022-08-19T05:37:27;6.65;;;5.95;;
23712;SDS011;12035;49.978;8.298;2022-08-19T05:42:24;7.93;;;6.65;;
23712;SDS011;12035;49.978;8.298;2022-08-19T05:47:21;8.48;;;6.85;;
23712;SDS011;12035;49.978;8.298;2022-08-19T05:52:19;10.48;;;6.85;;
23712;SDS011;12035;49.978;8.298;2022-08-19T05:57:17;9.13;;;5.93;;
23712;SDS011;12035;49.978;8.298;2022-08-19T06:02:15;7.03;;;6.10;;
23712;SDS011;12035;49.978;8.298;2022-08-19T06:07:12;10.10;;;6.97;;
23712;SDS011;12035;49.978;8.298;2022-08-19T06:12:10;8.90;;;6.35;;
23712;SDS011;12035;49.978;8.298;2022-08-19T06:17:08;11.70;;;6.03;;
23712;SDS011;12035;49.978;8.298;2022-08-19T06:22:06;7.85;;;6.07;;
23712;SDS011;12035;49.978;8.298;2022-08-19T06:27:04;11.20;;;6.70;;
23712;SDS011;12035;49.978;8.298;2022-08-19T06:32:02;9.20;;;6.35;;
23712;SDS011;12035;49.978;8.298;2022-08-19T06:37:01;7.80;;;5.70;;
23712;SDS011;12035;49.978;8.298;2022-08-19T06:42:01;8.43;;;6.03;;
23712;SDS011;12035;49.978;8.298;2022-08-19T06:47:02;10.18;;;6.28;;
23712;SDS011;12035;49.978;8.298;2022-08-19T06:52:03;7.45;;;6.07;;
23712;SDS011;12035;49.978;8.298;2022-08-19T06:57:01;7.63;;;5.90;;
23712;SDS011;12035;49.978;8.298;2022-08-19T07:02:00;10.40;;;5.05;;
23712;SDS011;12035;49.978;8.298;2022-08-19T07:07:03;7.78;;;5.00;;
23712;SDS011;12035;49.978;8.298;2022-08-19T07:12:04;7.30;;;5.00;;
23712;SDS011;12035;49.978;8.298;2022-08-19T07:17:05;8.93;;;4.95;;
23712;SDS011;12035;49.978;8.298;2022-08-19T07:22:07;5.72;;;4.30;;
23712;SDS011;12035;49.978;8.298;2022-08-19T07:27:05;7.90;;;4.43;;
23712;SDS011;12035;49.978;8.298;2022-08-19T07:32:05;5.97;;;4.30;;
23712;SDS011;12035;49.978;8.298;2022-08-19T07:37:04;6.30;;;4.65;;
23712;SDS011;12035;49.978;8.298;2022-08-19T07:42:04;7.43;;;5.05;;
23712;SDS011;12035;49.978;8.298;2022-08-19T07:47:05;6.05;;;4.93;;
23712;SDS011;12035;49.978;8.298;2022-08-19T07:52:04;11.48;;;5.43;;
23712;SDS011;12035;49.978;8.298;2022-08-19T07:57:05;6.20;;;3.90;;
23712;SDS011;12035;49.978;8.298;2022-08-19T08:02:03;7.53;;;4.10;;
23712;SDS011;12035;49.978;8.298;2022-08-19T08:07:00;8.55;;;5.03;;
23712;SDS011;12035;49.978;8.298;2022-08-19T08:12:18;6.57;;;4.47;;
23712;SDS011;12035;49.978;8.298;2022-08-19T08:17:21;8.75;;;4.32;;
23712;SDS011;12035;49.978;8.298;2022-08-19T08:22:21;6.35;;;4.65;;
23712;SDS011;12035;49.978;8.298;2022-08-19T08:27:38;8.40;;;4.65;;
23712;SDS011;12035;49.978;8.298;2022-08-19T08:32:37;6.75;;;3.88;;
23712;SDS011;12035;49.978;8.298;2022-08-19T08:37:36;9.27;;;5.43;;
23712;SDS011;12035;49.978;8.298;2022-08-19T08:42:34;7.80;;;6.28;;
23712;SDS011;12035;49.978;8.298;2022-08-19T08:47:37;8.95;;;6.60;;
23712;SDS011;12035;49.978;8.298;2022-08-19T08:52:43;12.35;;;7.45;;
23712;SDS011;12035;49.978;8.298;2022-08-19T08:57:48;7.38;;;5.90;;
23712;SDS011;12035;49.978;8.298;2022-08-19T09:02:50;5.93;;;5.18;;
23712;SDS011;12035;49.978;8.298;2022-08-19T09:07:49;9.18;;;6.78;;
23712;SDS011;12035;49.978;8.298;2022-08-19T09:12:58;8.63;;;6.25;;
23712;SDS011;12035;49.978;8.298;2022-08-19T09:18:04;6.88;;;6.05;;
23712;SDS011;12035;49.978;8.298;2022-08-19T09:23:01;6.93;;;5.32;;
23712;SDS011;12035;49.978;8.298;2022-08-19T09:28:00;8.23;;;5.82;;
23712;SDS011;12035;49.978;8.298;2022-08-19T09:32:58;7.00;;;5.35;;
23712;SDS011;12035;49.978;8.298;2022-08-19T09:37:56;7.47;;;5.05;;
23712;SDS011;12035;49.978;8.298;2022-08-19T09:42:55;7.53;;;5.30;;
23712;SDS011;12035;49.978;8.298;2022-08-19T09:47:58;6.18;;;5.25;;
23712;SDS011;12035;49.978;8.298;2022-08-19T09:52:55;7.32;;;5.07;;
23712;SDS011;12035;49.978;8.298;2022-08-19T09:57:53;8.07;;;6.72;;
23712;SDS011;12035;49.978;8.298;2022-08-19T10:02:50;8.02;;;6.43;;
23712;SDS011;12035;49.978;8.298;2022-08-19T10:07:49;7.22;;;6.30;;
23712;SDS011;12035;49.978;8.298;2022-08-19T10:12:46;7.20;;;6.05;;
23712;SDS011;12035;49.978;8.298;2022-08-19T10:17:43;5.75;;;4.93;;
23712;SDS011;12035;49.978;8.298;2022-08-19T10:22:41;7.22;;;6.10;;
23712;SDS011;12035;49.978;8.298;2022-08-19T10:27:39;6.13;;;5.05;;
23712;SDS011;12035;49.978;8.298;2022-08-19T10:32:37;7.03;;;5.18;;
23712;SDS011;12035;49.978;8.298;2022-08-19T10:37:35;7.03;;;4.70;;
23712;SDS011;12035;49.978;8.298;2022-08-19T10:42:33;6.57;;;4.40;;
23712;SDS011;12035;49.978;8.298;2022-08-19T10:47:32;8.15;;;4.25;;
23712;SDS011;12035;49.978;8.298;2022-08-19T10:52:30;7.30;;;3.90;;
23712;SDS011;12035;49.978;8.298;2022-08-19T10:57:31;5.40;;;3.70;;
23712;SDS011;12035;49.978;8.298;2022-08-19T11:02:28;5.55;;;4.03;;
23712;SDS011;12035;49.978;8.298;2022-08-19T11:07:29;6.85;;;3.70;;
23712;SDS011;12035;49.978;8.298;2022-08-19T11:12:26;4.82;;;3.88;;
23712;SDS011;12035;49.978;8.298;2022-08-19T11:17:23;5.05;;;3.53;;
23712;SDS011;12035;49.978;8.298;2022-08-19T11:22:21;5.63;;;3.97;;
23712;SDS011;12035;49.978;8.298;2022-08-19T11:27:19;4.63;;;3.53;;
23712;SDS011;12035;49.978;8.298;2022-08-19T11:32:16;4.90;;;3.40;;
23712;SDS011;12035;49.978;8.298;2022-08-19T11:37:14;3.38;;;2.80;;
23712;SDS011;12035;49.978;8.298;2022-08-19T11:42:11;4.45;;;2.85;;
23712;SDS011;12035;49.978;8.298;2022-08-19T11:47:27;5.10;;;3.40;;
23712;SDS011;12035;49.978;8.298;2022-08-19T11:52:25;6.70;;;3.22;;
23712;SDS011;12035;49.978;8.298;2022-08-19T11:57:24;4.22;;;3.10;;
23712;SDS011;12035;49.978;8.298;2022-08-19T12:02:21;4.30;;;3.40;;
23712;SDS011;12035;49.978;8.298;2022-08-19T12:07:20;3.65;;;3.03;;
23712;SDS011;12035;49.978;8.298;2022-08-19T12:12:17;5.13;;;3.20;;
23712;SDS011;12035;49.978;8.298;2022-08-19T12:17:14;4.85;;;3.22;;
23712;SDS011;12035;49.978;8.298;2022-08-19T12:22:11;4.35;;;3.28;;
23712;SDS011;12035;49.978;8.298;2022-08-19T12:27:09;4.45;;;2.88;;
23712;SDS011;12035;49.978;8.298;2022-08-19T12:32:07;3.00;;;2.50;;
23712;SDS011;12035;49.978;8.298;2022-08-19T12:37:04;4.60;;;2.95;;
23712;SDS011;12035;49.978;8.298;2022-08-19T12:42:03;4.07;;;3.20;;
23712;SDS011;12035;49.978;8.298;2022-08-19T12:47:05;6.03;;;3.38;;
23712;SDS011;12035;49.978;8.298;2022-08-19T12:52:03;5.32;;;3.50;;
23712;SDS011;12035;49.978;8.298;2022-08-19T12:57:07;3.90;;;3.50;;
23712;SDS011;12035;49.978;8.298;2022-08-19T13:02:35;4.85;;;3.40;;
23712;SDS011;12035;49.978;8.298;2022-08-19T13:07:32;4.78;;;3.03;;
23712;SDS011;12035;49.978;8.298;2022-08-19T13:12:29;5.15;;;3.50;;
23712;SDS011;12035;49.978;8.298;2022-08-19T13:17:27;4.68;;;3.30;;
23712;SDS011;12035;49.978;8.298;2022-08-19T13:22:25;3.65;;;3.17;;
23712;SDS011;12035;49.978;8.298;2022-08-19T13:27:22;3.88;;;3.20;;
23712;SDS011;12035;49.978;8.298;2022-08-19T13:32:19;3.78;;;3.10;;
23712;SDS011;12035;49.978;8.298;2022-08-19T13:37:35;3.72;;;2.70;;
23712;SDS011;12035;49.978;8.298;2022-08-19T13:42:38;4.65;;;2.80;;
23712;SDS011;12035;49.978;8.298;2022-08-19T13:47:36;3.50;;;2.70;;
23712;SDS011;12035;49.978;8.298;2022-08-19T13:52:38;4.75;;;3.08;;
23712;SDS011;12035;49.978;8.298;2022-08-19T13:57:36;3.92;;;2.95;;
23712;SDS011;12035;49.978;8.298;2022-08-19T14:02:34;5.95;;;2.85;;
23712;SDS011;12035;49.978;8.298;2022-08-19T14:07:32;3.55;;;3.00;;
23712;SDS011;12035;49.978;8.298;2022-08-19T14:12:31;2.95;;;2.65;;
23712;SDS011;12035;49.978;8.298;2022-08-19T14:17:28;3.67;;;3.00;;
23712;SDS011;12035;49.978;8.298;2022-08-19T14:22:25;3.55;;;2.60;;
23712;SDS011;12035;49.978;8.298;2022-08-19T14:27:23;4.95;;;3.40;;
23712;SDS011;12035;49.978;8.298;2022-08-19T14:32:22;4.60;;;3.05;;
23712;SDS011;12035;49.978;8.298;2022-08-19T14:37:19;3.38;;;2.80;;
23712;SDS011;12035;49.978;8.298;2022-08-19T14:42:17;3.38;;;2.60;;
23712;SDS011;12035;49.978;8.298;2022-08-19T14:47:15;4.75;;;2.85;;
23712;SDS011;12035;49.978;8.298;2022-08-19T14:52:13;3.83;;;2.80;;
23712;SDS011;12035;49.978;8.298;2022-08-19T14:57:11;4.05;;;3.13;;
23712;SDS011;12035;49.978;8.298;2022-08-19T15:02:10;4.32;;;3.05;;
23712;SDS011;12035;49.978;8.298;2022-08-19T15:07:07;10.70;;;3.03;;
23712;SDS011;12035;49.978;8.298;2022-08-19T15:12:06;3.78;;;2.88;;
23712;SDS011;12035;49.978;8.298;2022-08-19T15:17:04;5.30;;;3.42;;
23712;SDS011;12035;49.978;8.298;2022-08-19T15:22:01;6.03;;;3.40;;
23712;SDS011;12035;49.978;8.298;2022-08-19T15:26:58;4.93;;;3.00;;
23712;SDS011;12035;49.978;8.298;2022-08-19T15:31:56;4.18;;;2.80;;
23712;SDS011;12035;49.978;8.298;2022-08-19T15:36:54;3.78;;;2.95;;
23712;SDS011;12035;49.978;8.298;2022-08-19T15:41:53;4.38;;;2.70;;
23712;SDS011;12035;49.978;8.298;2022-08-19T15:46:50;4.75;;;3.35;;
23712;SDS011;12035;49.978;8.298;2022-08-19T15:51:48;5.13;;;3.63;;
23712;SDS011;12035;49.978;8.298;2022-08-19T15:56:47;6.28;;;3.28;;
23712;SDS011;12035;49.978;8.298;2022-08-19T16:02:02;4.43;;;3.55;;
23712;SDS011;12035;49.978;8.298;2022-08-19T16:07:18;4.32;;;3.40;;
23712;SDS011;12035;49.978;8.298;2022-08-19T16:12:16;3.65;;;3.10;;
23712;SDS011;12035;49.978;8.298;2022-08-19T16:17:13;6.18;;;3.35;;
23712;SDS011;12035;49.978;8.298;2022-08-19T16:22:10;4.82;;;3.50;;
23712;SDS011;12035;49.978;8.298;2022-08-19T16:27:09;5.53;;;3.60;;
23712;SDS011;12035;49.978;8.298;2022-08-19T16:32:07;6.25;;;3.90;;
23712;SDS011;12035;49.978;8.298;2022-08-19T16:37:06;5.57;;;3.70;;
23712;SDS011;12035;49.978;8.298;2022-08-19T16:42:05;5.53;;;4.03;;
23712;SDS011;12035;49.978;8.298;2022-08-19T16:47:05;6.95;;;3.63;;
23712;SDS011;12035;49.978;8.298;2022-08-19T16:52:03;7.75;;;3.85;;
23712;SDS011;12035;49.978;8.298;2022-08-19T16:57:04;4.80;;;3.58;;
23712;SDS011;12035;49.978;8.298;2022-08-19T17:02:03;4.30;;;3.35;;
23712;SDS011;12035;49.978;8.298;2022-08-19T17:07:00;4.68;;;3.50;;
23712;SDS011;12035;49.978;8.298;2022-08-19T17:11:58;4.07;;;3.30;;
23712;SDS011;12035;49.978;8.298;2022-08-19T17:16:55;5.93;;;3.45;;
23712;SDS011;12035;49.978;8.298;2022-08-19T17:21:53;4.20;;;3.00;;
23712;SDS011;12035;49.978;8.298;2022-08-19T17:26:51;5.13;;;3.50;;
23712;SDS011;12035;49.978;8.298;2022-08-19T17:31:48;4.25;;;3.20;;
23712;SDS011;12035;49.978;8.298;2022-08-19T17:36:45;5.53;;;3.50;;
23712;SDS011;12035;49.978;8.298;2022-08-19T17:41:44;4.60;;;3.20;;
23712;SDS011;12035;49.978;8.298;2022-08-19T17:46:41;4.65;;;3.45;;
23712;SDS011;12035;49.978;8.298;2022-08-19T17:51:41;6.90;;;3.30;;
23712;SDS011;12035;49.978;8.298;2022-08-19T17:56:40;3.22;;;2.90;;
23712;SDS011;12035;49.978;8.298;2022-08-19T18:01:38;3.58;;;3.10;;
23712;SDS011;12035;49.978;8.298;2022-08-19T18:06:37;4.18;;;3.42;;
23712;SDS011;12035;49.978;8.298;2022-08-19T18:11:35;4.10;;;3.35;;
23712;SDS011;12035;49.978;8.298;2022-08-19T18:16:32;5.05;;;3.42;;
23712;SDS011;12035;49.978;8.298;2022-08-19T18:21:32;5.65;;;3.50;;
23712;SDS011;12035;49.978;8.298;2022-08-19T18:26:30;4.55;;;3.83;;
23712;SDS011;12035;49.978;8.298;2022-08-19T18:31:27;5.47;;;3.53;;
23712;SDS011;12035;49.978;8.298;2022-08-19T18:36:24;6.30;;;3.90;;
23712;SDS011;12035;49.978;8.298;2022-08-19T18:41:24;5.00;;;3.78;;
23712;SDS011;12035;49.978;8.298;2022-08-19T18:46:38;5.47;;;4.10;;
23712;SDS011;12035;49.978;8.298;2022-08-19T18:51:53;6.45;;;4.28;;
23712;SDS011;12035;49.978;8.298;2022-08-19T18:56:52;4.82;;;3.95;;
23712;SDS011;12035;49.978;8.298;2022-08-19T19:01:50;6.00;;;3.83;;
23712;SDS011;12035;49.978;8.298;2022-08-19T19:06:50;7.75;;;3.90;;
23712;SDS011;12035;49.978;8.298;2022-08-19T19:11:49;6.68;;;3.63;;
23712;SDS011;12035;49.978;8.298;2022-08-19T19:16:50;7.07;;;4.15;;
23712;SDS011;12035;49.978;8.298;2022-08-19T19:21:47;8.05;;;4.20;;
23712;SDS011;12035;49.978;8.298;2022-08-19T19:26:47;4.95;;;4.00;;
23712;SDS011;12035;49.978;8.298;2022-08-19T19:31:47;6.70;;;3.78;;
23712;SDS011;12035;49.978;8.298;2022-08-19T19:36:47;5.10;;;3.78;;
23712;SDS011;12035;49.978;8.298;2022-08-19T19:41:46;5.63;;;3.88;;
23712;SDS011;12035;49.978;8.298;2022-08-19T19:46:43;6.47;;;4.32;;
23712;SDS011;12035;49.978;8.298;2022-08-19T19:51:43;5.30;;;4.05;;
23712;SDS011;12035;49.978;8.298;2022-08-19T19:56:41;5.80;;;4.40;;
23712;SDS011;12035;49.978;8.298;2022-08-19T20:01:39;6.68;;;4.20;;
23712;SDS011;12035;49.978;8.298;2022-08-19T20:06:41;7.63;;;4.18;;
23712;SDS011;12035;49.978;8.298;2022-08-19T20:11:41;8.63;;;3.88;;
23712;SDS011;12035;49.978;8.298;2022-08-19T20:16:42;6.22;;;3.65;;
23712;SDS011;12035;49.978;8.298;2022-08-19T20:21:41;4.28;;;2.92;;
23712;SDS011;12035;49.978;8.298;2022-08-19T20:26:42;4.60;;;2.90;;
23712;SDS011;12035;49.978;8.298;2022-08-19T20:31:41;5.70;;;2.75;;
23712;SDS011;12035;49.978;8.298;2022-08-19T20:36:39;4.45;;;2.70;;
23712;SDS011;12035;49.978;8.298;2022-08-19T20:41:38;4.82;;;2.80;;
23712;SDS011;12035;49.978;8.298;2022-08-19T20:46:36;4.55;;;2.78;;
23712;SDS011;12035;49.978;8.298;2022-08-19T20:51:33;7.50;;;2.85;;
23712;SDS011;12035;49.978;8.298;2022-08-19T20:56:30;4.55;;;2.60;;
23712;SDS011;12035;49.978;8.298;2022-08-19T21:01:29;4.07;;;2.70;;
23712;SDS011;12035;49.978;8.298;2022-08-19T21:06:26;3.90;;;2.20;;
23712;SDS011;12035;49.978;8.298;2022-08-19T21:11:23;5.75;;;2.60;;
23712;SDS011;12035;49.978;8.298;2022-08-19T21:16:20;3.90;;;2.67;;
23712;SDS011;12035;49.978;8.298;2022-08-19T21:21:19;3.33;;;2.50;;
23712;SDS011;12035;49.978;8.298;2022-08-19T21:26:16;3.83;;;2.38;;
23712;SDS011;12035;49.978;8.298;2022-08-19T21:31:13;4.55;;;2.58;;
23712;SDS011;12035;49.978;8.298;2022-08-19T21:36:11;5.97;;;2.83;;
23712;SDS011;12035;49.978;8.298;2022-08-19T21:41:10;2.83;;;2.20;;
23712;SDS011;12035;49.978;8.298;2022-08-19T21:46:07;4.88;;;2.38;;
23712;SDS011;12035;49.978;8.298;2022-08-19T21:51:05;2.67;;;1.92;;
23712;SDS011;12035;49.978;8.298;2022-08-19T21:56:02;4.88;;;2.25;;
23712;SDS011;12035;49.978;8.298;2022-08-19T22:01:02;4.10;;;2.20;;
23712;SDS011;12035;49.978;8.298;2022-08-19T22:06:01;2.83;;;1.98;;
23712;SDS011;12035;49.978;8.298;2022-08-19T22:11:00;3.95;;;2.10;;
23712;SDS011;12035;49.978;8.298;2022-08-19T22:15:57;3.70;;;1.70;;
23712;SDS011;12035;49.978;8.298;2022-08-19T22:20:55;3.10;;;1.67;;
23712;SDS011;12035;49.978;8.298;2022-08-19T22:25:52;2.10;;;1.30;;
23712;SDS011;12035;49.978;8.298;2022-08-19T22:30:50;3.45;;;1.40;;
23712;SDS011;12035;49.978;8.298;2022-08-19T22:35:47;6.05;;;1.83;;
23712;SDS011;12035;49.978;8.298;2022-08-19T22:40:48;2.80;;;1.50;;
23712;SDS011;12035;49.978;8.298;2022-08-19T22:45:47;3.33;;;1.27;;
23712;SDS011;12035;49.978;8.298;2022-08-19T22:50:46;2.13;;;1.38;;
23712;SDS011;12035;49.978;8.298;2022-08-19T22:55:59;3.63;;;1.45;;
23712;SDS011;12035;49.978;8.298;2022-08-19T23:00:57;4.13;;;1.60;;
23712;SDS011;12035;49.978;8.298;2022-08-19T23:05:54;3.17;;;1.30;;
23712;SDS011;12035;49.978;8.298;2022-08-19T23:10:52;3.10;;;1.48;;
23712;SDS011;12035;49.978;8.298;2022-08-19T23:15:50;2.85;;;1.50;;
23712;SDS011;12035;49.978;8.298;2022-08-19T23:20:48;2.97;;;1.67;;
23712;SDS011;12035;49.978;8.298;2022-08-19T23:25:47;2.33;;;1.45;;
23712;SDS011;12035;49.978;8.298;2022-08-19T23:30:46;3.30;;;1.33;;
23712;SDS011;12035;49.978;8.298;2022-08-19T23:35:46;2.17;;;1.50;;
23712;SDS011;12035;49.978;8.298;2022-08-19T23:40:44;2.28;;;1.50;;
23712;SDS011;12035;49.978;8.298;2022-08-19T23:45:42;2.58;;;1.30;;
23712;SDS011;12035;49.978;8.298;2022-08-19T23:50:40;1.92;;;1.40;;
23712;SDS011;12035;49.978;8.298;2022-08-19T23:55:41;1.80;;;1.35;;
